sensor_id;sensor_type;location;lat;lon;timestamp;temperature;humidity
5246;DHT22;54412;51.206;6.888;2023-05-10T00:01:25;15.10;99.90
5246;DHT22;54412;51.206;6.888;2023-05-10T00:03:51;15.10;99.90
5246;DHT22;54412;51.206;6.888;2023-05-10T00:06:16;15.10;99.90
5246;DHT22;54412;51.206;6.888;2023-05-10T00:08:42;15.10;99.90
5246;DHT22;54412;51.206;6.888;2023-05-10T00:11:08;15.10;99.90
5246;DHT22;54412;51.206;6.888;2023-05-10T00:13:34;15.00;99.90
5246;DHT22;54412;51.206;6.888;2023-05-10T00:16:00;14.90;99.90
5246;DHT22;54412;51.206;6.888;2023-05-10T00:18:25;14.80;99.90
5246;DHT22;54412;51.206;6.888;2023-05-10T00:20:51;15.00;99.90
5246;DHT22;54412;51.206;6.888;2023-05-10T00:23:17;15.00;99.90
5246;DHT22;54412;51.206;6.888;2023-05-10T00:25:42;15.00;99.90
5246;DHT22;54412;51.206;6.888;2023-05-10T00:28:08;15.00;99.90
5246;DHT22;54412;51.206;6.888;2023-05-10T00:30:33;15.10;99.90
5246;DHT22;54412;51.206;6.888;2023-05-10T00:32:59;14.90;99.90
5246;DHT22;54412;51.206;6.888;2023-05-10T00:35:25;14.90;99.90
5246;DHT22;54412;51.206;6.888;2023-05-10T00:37:51;14.90;99.90
5246;DHT22;54412;51.206;6.888;2023-05-10T00:40:17;15.00;99.90
5246;DHT22;54412;51.206;6.888;2023-05-10T00:42:42;14.90;99.90
5246;DHT22;54412;51.206;6.888;2023-05-10T00:45:08;14.90;99.90
5246;DHT22;54412;51.206;6.888;2023-05-10T00:47:34;14.90;99.90
5246;DHT22;54412;51.206;6.888;2023-05-10T00:50:01;15.00;99.90
5246;DHT22;54412;51.206;6.888;2023-05-10T00:52:28;15.00;99.90
5246;DHT22;54412;51.206;6.888;2023-05-10T00:54:54;14.90;99.90
5246;DHT22;54412;51.206;6.888;2023-05-10T00:57:22;14.90;99.90
5246;DHT22;54412;51.206;6.888;2023-05-10T00:59:48;14.90;99.90
5246;DHT22;54412;51.206;6.888;2023-05-10T01:02:14;15.00;99.90
5246;DHT22;54412;51.206;6.888;2023-05-10T01:04:40;14.80;99.90
5246;DHT22;54412;51.206;6.888;2023-05-10T01:07:06;14.80;99.90
5246;DHT22;54412;51.206;6.888;2023-05-10T01:09:32;14.80;99.90
5246;DHT22;54412;51.206;6.888;2023-05-10T01:11:59;14.80;99.90
5246;DHT22;54412;51.206;6.888;2023-05-10T01:14:27;14.70;99.90
5246;DHT22;54412;51.206;6.888;2023-05-10T01:16:53;14.70;99.90
5246;DHT22;54412;51.206;6.888;2023-05-10T01:19:26;14.80;99.90
5246;DHT22;54412;51.206;6.888;2023-05-10T01:27:46;14.90;99.90
5246;DHT22;54412;51.206;6.888;2023-05-10T01:33:39;15.00;99.90
5246;DHT22;54412;51.206;6.888;2023-05-10T01:36:26;15.00;99.90
5246;DHT22;54412;51.206;6.888;2023-05-10T01:39:06;15.00;99.90
5246;DHT22;54412;51.206;6.888;2023-05-10T01:42:03;15.00;99.90
5246;DHT22;54412;51.206;6.888;2023-05-10T01:47:31;15.00;99.90
5246;DHT22;54412;51.206;6.888;2023-05-10T01:50:01;15.00;99.90
5246;DHT22;54412;51.206;6.888;2023-05-10T01:52:33;15.00;99.90
5246;DHT22;54412;51.206;6.888;2023-05-10T01:55:05;15.00;99.90
5246;DHT22;54412;51.206;6.888;2023-05-10T01:57:35;14.90;99.90
5246;DHT22;54412;51.206;6.888;2023-05-10T02:00:03;14.90;99.90
5246;DHT22;54412;51.206;6.888;2023-05-10T02:02:35;14.90;99.90
5246;DHT22;54412;51.206;6.888;2023-05-10T02:05:04;14.90;99.90
5246;DHT22;54412;51.206;6.888;2023-05-10T02:07:33;14.90;99.90
5246;DHT22;54412;51.206;6.888;2023-05-10T02:10:04;14.90;99.90
5246;DHT22;54412;51.206;6.888;2023-05-10T02:12:35;14.90;99.90
5246;DHT22;54412;51.206;6.888;2023-05-10T02:15:04;14.80;99.90
5246;DHT22;54412;51.206;6.888;2023-05-10T02:17:32;14.80;99.90
5246;DHT22;54412;51.206;6.888;2023-05-10T02:20:01;14.90;99.90
5246;DHT22;54412;51.206;6.888;2023-05-10T02:22:29;14.90;99.90
5246;DHT22;54412;51.206;6.888;2023-05-10T02:24:58;14.90;99.90
5246;DHT22;54412;51.206;6.888;2023-05-10T02:27:27;15.00;99.90
5246;DHT22;54412;51.206;6.888;2023-05-10T02:29:54;14.90;99.90
5246;DHT22;54412;51.206;6.888;2023-05-10T02:32:22;14.90;99.90
5246;DHT22;54412;51.206;6.888;2023-05-10T02:34:52;15.00;99.90
5246;DHT22;54412;51.206;6.888;2023-05-10T02:37:21;15.00;99.90
5246;DHT22;54412;51.206;6.888;2023-05-10T02:39:49;15.00;99.90
5246;DHT22;54412;51.206;6.888;2023-05-10T02:42:18;15.00;99.90
5246;DHT22;54412;51.206;6.888;2023-05-10T02:44:48;15.00;99.90
5246;DHT22;54412;51.206;6.888;2023-05-10T02:47:18;15.00;99.90
5246;DHT22;54412;51.206;6.888;2023-05-10T02:49:45;14.90;99.90
5246;DHT22;54412;51.206;6.888;2023-05-10T02:52:16;14.80;99.90
5246;DHT22;54412;51.206;6.888;2023-05-10T02:54:49;14.80;99.90
5246;DHT22;54412;51.206;6.888;2023-05-10T02:57:22;14.90;99.90
5246;DHT22;54412;51.206;6.888;2023-05-10T02:59:52;14.90;99.90
5246;DHT22;54412;51.206;6.888;2023-05-10T03:02:18;14.90;99.90
5246;DHT22;54412;51.206;6.888;2023-05-10T03:04:45;15.00;99.90
5246;DHT22;54412;51.206;6.888;2023-05-10T03:07:11;14.90;99.90
5246;DHT22;54412;51.206;6.888;2023-05-10T03:09:37;14.90;99.90
5246;DHT22;54412;51.206;6.888;2023-05-10T03:12:19;15.00;99.90
5246;DHT22;54412;51.206;6.888;2023-05-10T03:15:03;14.90;99.90
5246;DHT22;54412;51.206;6.888;2023-05-10T03:18:08;14.90;99.90
5246;DHT22;54412;51.206;6.888;2023-05-10T03:20:42;14.90;99.90
5246;DHT22;54412;51.206;6.888;2023-05-10T03:26:07;14.90;99.90
5246;DHT22;54412;51.206;6.888;2023-05-10T03:28:34;14.80;99.90
5246;DHT22;54412;51.206;6.888;2023-05-10T03:31:02;14.90;99.90
5246;DHT22;54412;51.206;6.888;2023-05-10T03:33:30;14.90;99.90
5246;DHT22;54412;51.206;6.888;2023-05-10T03:35:57;14.90;99.90
5246;DHT22;54412;51.206;6.888;2023-05-10T03:38:22;14.90;99.90
5246;DHT22;54412;51.206;6.888;2023-05-10T03:40:48;14.90;99.90
5246;DHT22;54412;51.206;6.888;2023-05-10T03:43:14;14.90;99.90
5246;DHT22;54412;51.206;6.888;2023-05-10T03:45:39;14.80;99.90
5246;DHT22;54412;51.206;6.888;2023-05-10T03:48:05;14.80;99.90
5246;DHT22;54412;51.206;6.888;2023-05-10T03:50:31;14.70;99.90
5246;DHT22;54412;51.206;6.888;2023-05-10T03:52:56;14.60;99.90
5246;DHT22;54412;51.206;6.888;2023-05-10T03:55:23;14.60;99.90
5246;DHT22;54412;51.206;6.888;2023-05-10T03:57:49;14.40;99.90
5246;DHT22;54412;51.206;6.888;2023-05-10T04:00:19;14.50;99.90
5246;DHT22;54412;51.206;6.888;2023-05-10T04:02:45;14.70;99.90
5246;DHT22;54412;51.206;6.888;2023-05-10T04:05:11;14.60;99.90
5246;DHT22;54412;51.206;6.888;2023-05-10T04:07:36;14.70;99.90
5246;DHT22;54412;51.206;6.888;2023-05-10T04:10:02;14.70;99.90
5246;DHT22;54412;51.206;6.888;2023-05-10T04:12:28;14.80;99.90
5246;DHT22;54412;51.206;6.888;2023-05-10T04:14:53;14.90;99.90
5246;DHT22;54412;51.206;6.888;2023-05-10T04:17:19;14.80;99.90
5246;DHT22;54412;51.206;6.888;2023-05-10T04:19:45;14.80;99.90
5246;DHT22;54412;51.206;6.888;2023-05-10T04:22:10;14.80;99.90
5246;DHT22;54412;51.206;6.888;2023-05-10T04:24:36;14.80;99.90
5246;DHT22;54412;51.206;6.888;2023-05-10T04:27:02;14.80;99.90
5246;DHT22;54412;51.206;6.888;2023-05-10T04:29:27;14.80;99.90
5246;DHT22;54412;51.206;6.888;2023-05-10T04:31:53;14.80;99.90
5246;DHT22;54412;51.206;6.888;2023-05-10T04:34:20;14.80;99.90
5246;DHT22;54412;51.206;6.888;2023-05-10T04:36:46;14.90;99.90
5246;DHT22;54412;51.206;6.888;2023-05-10T04:39:12;14.90;99.90
5246;DHT22;54412;51.206;6.888;2023-05-10T04:41:38;14.80;99.90
5246;DHT22;54412;51.206;6.888;2023-05-10T04:44:04;14.90;99.90
5246;DHT22;54412;51.206;6.888;2023-05-10T04:46:30;14.90;99.90
5246;DHT22;54412;51.206;6.888;2023-05-10T04:48:55;14.80;99.90
5246;DHT22;54412;51.206;6.888;2023-05-10T04:51:21;14.90;99.90
5246;DHT22;54412;51.206;6.888;2023-05-10T04:53:47;14.90;99.90
5246;DHT22;54412;51.206;6.888;2023-05-10T04:56:12;14.90;99.90
5246;DHT22;54412;51.206;6.888;2023-05-10T04:58:38;14.90;99.90
5246;DHT22;54412;51.206;6.888;2023-05-10T05:01:07;14.90;99.90
5246;DHT22;54412;51.206;6.888;2023-05-10T05:03:34;14.90;99.90
5246;DHT22;54412;51.206;6.888;2023-05-10T05:06:00;14.90;99.90
5246;DHT22;54412;51.206;6.888;2023-05-10T05:08:25;14.90;99.90
5246;DHT22;54412;51.206;6.888;2023-05-10T05:10:51;14.90;99.90
5246;DHT22;54412;51.206;6.888;2023-05-10T05:13:17;15.00;99.90
5246;DHT22;54412;51.206;6.888;2023-05-10T05:15:43;15.10;99.90
5246;DHT22;54412;51.206;6.888;2023-05-10T05:18:08;15.00;99.90
5246;DHT22;54412;51.206;6.888;2023-05-10T05:20:34;15.00;99.90
5246;DHT22;54412;51.206;6.888;2023-05-10T05:23:00;15.10;99.90
5246;DHT22;54412;51.206;6.888;2023-05-10T05:25:26;14.90;99.90
5246;DHT22;54412;51.206;6.888;2023-05-10T05:27:51;15.00;99.90
5246;DHT22;54412;51.206;6.888;2023-05-10T05:30:17;15.10;99.90
5246;DHT22;54412;51.206;6.888;2023-05-10T05:32:43;15.10;99.90
5246;DHT22;54412;51.206;6.888;2023-05-10T05:35:09;15.20;99.90
5246;DHT22;54412;51.206;6.888;2023-05-10T05:37:34;15.20;99.90
5246;DHT22;54412;51.206;6.888;2023-05-10T05:40:00;15.10;99.90
5246;DHT22;54412;51.206;6.888;2023-05-10T05:42:27;15.10;99.90
5246;DHT22;54412;51.206;6.888;2023-05-10T05:44:52;15.10;99.90
5246;DHT22;54412;51.206;6.888;2023-05-10T05:47:18;15.10;99.90
5246;DHT22;54412;51.206;6.888;2023-05-10T05:49:44;15.00;99.90
5246;DHT22;54412;51.206;6.888;2023-05-10T05:52:12;15.10;99.90
5246;DHT22;54412;51.206;6.888;2023-05-10T05:54:38;15.00;99.90
5246;DHT22;54412;51.206;6.888;2023-05-10T05:57:04;15.00;99.90
5246;DHT22;54412;51.206;6.888;2023-05-10T05:59:30;15.00;99.90
5246;DHT22;54412;51.206;6.888;2023-05-10T06:01:56;15.00;99.90
5246;DHT22;54412;51.206;6.888;2023-05-10T06:04:22;15.10;99.90
5246;DHT22;54412;51.206;6.888;2023-05-10T06:06:47;15.10;99.90
5246;DHT22;54412;51.206;6.888;2023-05-10T06:09:13;15.10;99.90
5246;DHT22;54412;51.206;6.888;2023-05-10T06:11:39;14.90;99.90
5246;DHT22;54412;51.206;6.888;2023-05-10T06:14:05;14.90;99.90
5246;DHT22;54412;51.206;6.888;2023-05-10T06:16:32;15.00;99.90
5246;DHT22;54412;51.206;6.888;2023-05-10T06:18:58;15.00;99.90
5246;DHT22;54412;51.206;6.888;2023-05-10T06:21:24;15.00;99.90
5246;DHT22;54412;51.206;6.888;2023-05-10T06:23:50;15.00;99.90
5246;DHT22;54412;51.206;6.888;2023-05-10T06:26:16;14.90;99.90
5246;DHT22;54412;51.206;6.888;2023-05-10T06:28:42;14.80;99.90
5246;DHT22;54412;51.206;6.888;2023-05-10T06:31:07;14.80;99.90
5246;DHT22;54412;51.206;6.888;2023-05-10T06:33:33;14.80;99.90
5246;DHT22;54412;51.206;6.888;2023-05-10T06:35:59;14.80;99.90
5246;DHT22;54412;51.206;6.888;2023-05-10T06:38:25;14.80;99.90
5246;DHT22;54412;51.206;6.888;2023-05-10T06:40:51;14.50;99.90
5246;DHT22;54412;51.206;6.888;2023-05-10T06:43:17;14.60;99.90
5246;DHT22;54412;51.206;6.888;2023-05-10T06:45:42;14.50;99.90
5246;DHT22;54412;51.206;6.888;2023-05-10T06:48:08;14.50;99.90
5246;DHT22;54412;51.206;6.888;2023-05-10T06:50:34;14.60;99.90
5246;DHT22;54412;51.206;6.888;2023-05-10T06:53:00;14.70;99.90
5246;DHT22;54412;51.206;6.888;2023-05-10T06:55:27;14.70;99.90
5246;DHT22;54412;51.206;6.888;2023-05-10T06:57:53;14.60;99.90
5246;DHT22;54412;51.206;6.888;2023-05-10T07:00:20;14.60;99.90
5246;DHT22;54412;51.206;6.888;2023-05-10T07:02:46;14.50;99.90
5246;DHT22;54412;51.206;6.888;2023-05-10T07:05:12;14.60;99.90
5246;DHT22;54412;51.206;6.888;2023-05-10T07:07:38;14.50;99.90
5246;DHT22;54412;51.206;6.888;2023-05-10T07:10:04;14.60;99.90
5246;DHT22;54412;51.206;6.888;2023-05-10T07:12:30;14.60;99.90
5246;DHT22;54412;51.206;6.888;2023-05-10T07:14:56;14.50;99.90
5246;DHT22;54412;51.206;6.888;2023-05-10T07:17:21;14.70;99.90
5246;DHT22;54412;51.206;6.888;2023-05-10T07:19:47;14.60;99.90
5246;DHT22;54412;51.206;6.888;2023-05-10T07:22:14;14.50;99.90
5246;DHT22;54412;51.206;6.888;2023-05-10T07:24:40;14.70;99.90
5246;DHT22;54412;51.206;6.888;2023-05-10T07:27:06;14.80;99.90
5246;DHT22;54412;51.206;6.888;2023-05-10T07:29:32;14.80;99.90
5246;DHT22;54412;51.206;6.888;2023-05-10T07:31:58;14.80;99.90
5246;DHT22;54412;51.206;6.888;2023-05-10T07:34:24;14.90;99.90
5246;DHT22;54412;51.206;6.888;2023-05-10T07:36:51;14.80;99.90
5246;DHT22;54412;51.206;6.888;2023-05-10T07:39:17;14.80;99.90
5246;DHT22;54412;51.206;6.888;2023-05-10T07:41:43;15.00;99.90
5246;DHT22;54412;51.206;6.888;2023-05-10T07:44:08;15.00;99.90
5246;DHT22;54412;51.206;6.888;2023-05-10T07:46:34;14.90;99.90
5246;DHT22;54412;51.206;6.888;2023-05-10T07:49:01;14.90;99.90
5246;DHT22;54412;51.206;6.888;2023-05-10T07:51:26;14.90;99.90
5246;DHT22;54412;51.206;6.888;2023-05-10T07:53:53;15.00;99.90
5246;DHT22;54412;51.206;6.888;2023-05-10T07:56:26;15.20;99.90
5246;DHT22;54412;51.206;6.888;2023-05-10T07:58:55;15.30;99.90
5246;DHT22;54412;51.206;6.888;2023-05-10T08:01:22;15.40;99.90
5246;DHT22;54412;51.206;6.888;2023-05-10T08:03:48;15.30;99.90
5246;DHT22;54412;51.206;6.888;2023-05-10T08:06:17;15.10;99.90
5246;DHT22;54412;51.206;6.888;2023-05-10T08:08:43;15.10;99.90
5246;DHT22;54412;51.206;6.888;2023-05-10T08:11:17;15.30;99.90
5246;DHT22;54412;51.206;6.888;2023-05-10T08:13:44;15.40;99.90
5246;DHT22;54412;51.206;6.888;2023-05-10T08:16:11;15.50;99.90
5246;DHT22;54412;51.206;6.888;2023-05-10T08:18:37;15.50;99.90
5246;DHT22;54412;51.206;6.888;2023-05-10T08:21:03;15.60;99.90
5246;DHT22;54412;51.206;6.888;2023-05-10T08:23:29;15.70;99.90
5246;DHT22;54412;51.206;6.888;2023-05-10T08:25:55;15.50;99.90
5246;DHT22;54412;51.206;6.888;2023-05-10T08:28:21;15.60;99.90
5246;DHT22;54412;51.206;6.888;2023-05-10T08:30:46;15.60;99.90
5246;DHT22;54412;51.206;6.888;2023-05-10T08:33:12;15.60;99.90
5246;DHT22;54412;51.206;6.888;2023-05-10T08:35:38;15.60;99.90
5246;DHT22;54412;51.206;6.888;2023-05-10T08:38:03;15.80;99.90
5246;DHT22;54412;51.206;6.888;2023-05-10T08:40:29;15.70;99.90
5246;DHT22;54412;51.206;6.888;2023-05-10T08:43:05;15.70;99.90
5246;DHT22;54412;51.206;6.888;2023-05-10T08:45:35;15.80;99.90
5246;DHT22;54412;51.206;6.888;2023-05-10T08:48:05;15.80;99.90
5246;DHT22;54412;51.206;6.888;2023-05-10T08:50:35;15.80;99.90
5246;DHT22;54412;51.206;6.888;2023-05-10T08:53:11;15.70;99.90
5246;DHT22;54412;51.206;6.888;2023-05-10T08:55:39;15.80;99.90
5246;DHT22;54412;51.206;6.888;2023-05-10T08:58:08;15.90;99.90
5246;DHT22;54412;51.206;6.888;2023-05-10T09:00:35;15.90;99.90
5246;DHT22;54412;51.206;6.888;2023-05-10T09:03:03;16.00;99.90
5246;DHT22;54412;51.206;6.888;2023-05-10T09:05:30;16.00;99.90
5246;DHT22;54412;51.206;6.888;2023-05-10T09:07:56;16.20;99.90
5246;DHT22;54412;51.206;6.888;2023-05-10T09:10:23;16.20;99.90
5246;DHT22;54412;51.206;6.888;2023-05-10T09:12:53;16.10;99.90
5246;DHT22;54412;51.206;6.888;2023-05-10T09:15:19;16.00;99.90
5246;DHT22;54412;51.206;6.888;2023-05-10T09:17:46;15.90;99.90
5246;DHT22;54412;51.206;6.888;2023-05-10T09:20:12;15.90;99.90
5246;DHT22;54412;51.206;6.888;2023-05-10T09:22:38;15.80;99.90
5246;DHT22;54412;51.206;6.888;2023-05-10T09:27:40;15.60;99.90
5246;DHT22;54412;51.206;6.888;2023-05-10T09:30:08;15.50;99.90
5246;DHT22;54412;51.206;6.888;2023-05-10T09:32:41;15.60;99.90
5246;DHT22;54412;51.206;6.888;2023-05-10T09:35:11;15.50;99.90
5246;DHT22;54412;51.206;6.888;2023-05-10T09:37:43;15.40;99.90
5246;DHT22;54412;51.206;6.888;2023-05-10T09:40:17;15.40;99.90
5246;DHT22;54412;51.206;6.888;2023-05-10T09:43:07;15.30;99.90
5246;DHT22;54412;51.206;6.888;2023-05-10T09:45:34;15.40;99.90
5246;DHT22;54412;51.206;6.888;2023-05-10T09:48:01;15.60;99.90
5246;DHT22;54412;51.206;6.888;2023-05-10T09:50:29;15.60;99.90
5246;DHT22;54412;51.206;6.888;2023-05-10T09:53:02;15.70;99.90
5246;DHT22;54412;51.206;6.888;2023-05-10T09:55:42;15.80;99.90
5246;DHT22;54412;51.206;6.888;2023-05-10T09:58:12;16.00;99.90
5246;DHT22;54412;51.206;6.888;2023-05-10T10:00:42;15.80;99.90
5246;DHT22;54412;51.206;6.888;2023-05-10T10:03:14;15.90;99.90
5246;DHT22;54412;51.206;6.888;2023-05-10T10:05:41;16.00;99.90
5246;DHT22;54412;51.206;6.888;2023-05-10T10:08:08;16.10;99.90
5246;DHT22;54412;51.206;6.888;2023-05-10T10:10:34;16.00;99.90
5246;DHT22;54412;51.206;6.888;2023-05-10T10:13:01;15.90;99.90
5246;DHT22;54412;51.206;6.888;2023-05-10T10:15:27;16.00;99.90
5246;DHT22;54412;51.206;6.888;2023-05-10T10:17:53;15.90;99.90
5246;DHT22;54412;51.206;6.888;2023-05-10T10:20:21;16.00;99.90
5246;DHT22;54412;51.206;6.888;2023-05-10T10:22:48;16.10;99.90
5246;DHT22;54412;51.206;6.888;2023-05-10T10:25:18;15.90;99.90
5246;DHT22;54412;51.206;6.888;2023-05-10T10:30:43;15.70;99.90
5246;DHT22;54412;51.206;6.888;2023-05-10T10:33:36;15.60;99.90
5246;DHT22;54412;51.206;6.888;2023-05-10T10:36:13;15.70;99.90
5246;DHT22;54412;51.206;6.888;2023-05-10T10:41:31;16.00;99.90
5246;DHT22;54412;51.206;6.888;2023-05-10T10:44:33;16.20;99.90
5246;DHT22;54412;51.206;6.888;2023-05-10T10:47:06;16.50;99.90
5246;DHT22;54412;51.206;6.888;2023-05-10T10:57:18;17.00;99.90
5246;DHT22;54412;51.206;6.888;2023-05-10T10:59:47;17.00;99.90
5246;DHT22;54412;51.206;6.888;2023-05-10T11:02:32;17.00;99.90
5246;DHT22;54412;51.206;6.888;2023-05-10T11:05:26;17.00;99.90
5246;DHT22;54412;51.206;6.888;2023-05-10T11:08:00;17.00;99.90
5246;DHT22;54412;51.206;6.888;2023-05-10T11:10:32;16.90;99.90
5246;DHT22;54412;51.206;6.888;2023-05-10T11:13:01;16.80;99.90
5246;DHT22;54412;51.206;6.888;2023-05-10T11:15:36;16.80;99.90
5246;DHT22;54412;51.206;6.888;2023-05-10T11:18:24;16.60;99.90
5246;DHT22;54412;51.206;6.888;2023-05-10T11:20:58;16.60;99.90
5246;DHT22;54412;51.206;6.888;2023-05-10T11:23:32;16.50;99.90
5246;DHT22;54412;51.206;6.888;2023-05-10T11:26:07;16.40;99.90
5246;DHT22;54412;51.206;6.888;2023-05-10T11:28:47;16.30;99.90
5246;DHT22;54412;51.206;6.888;2023-05-10T11:31:15;16.10;99.90
5246;DHT22;54412;51.206;6.888;2023-05-10T11:33:49;16.20;99.90
5246;DHT22;54412;51.206;6.888;2023-05-10T11:36:23;16.20;99.90
5246;DHT22;54412;51.206;6.888;2023-05-10T11:38:51;16.30;99.90
5246;DHT22;54412;51.206;6.888;2023-05-10T11:41:19;16.40;99.90
5246;DHT22;54412;51.206;6.888;2023-05-10T11:43:53;16.50;99.90
5246;DHT22;54412;51.206;6.888;2023-05-10T11:46:21;16.40;99.90
5246;DHT22;54412;51.206;6.888;2023-05-10T11:48:50;16.50;99.90
5246;DHT22;54412;51.206;6.888;2023-05-10T11:51:24;16.50;99.90
5246;DHT22;54412;51.206;6.888;2023-05-10T11:53:55;16.40;99.90
5246;DHT22;54412;51.206;6.888;2023-05-10T11:56:22;16.60;99.90
5246;DHT22;54412;51.206;6.888;2023-05-10T11:58:56;16.80;99.90
5246;DHT22;54412;51.206;6.888;2023-05-10T12:01:24;16.80;99.90
5246;DHT22;54412;51.206;6.888;2023-05-10T12:03:55;16.90;99.90
5246;DHT22;54412;51.206;6.888;2023-05-10T12:06:27;16.90;99.90
5246;DHT22;54412;51.206;6.888;2023-05-10T12:08:54;16.90;99.90
5246;DHT22;54412;51.206;6.888;2023-05-10T12:11:24;17.00;99.90
5246;DHT22;54412;51.206;6.888;2023-05-10T12:13:50;17.00;99.90
5246;DHT22;54412;51.206;6.888;2023-05-10T12:16:28;17.10;99.90
5246;DHT22;54412;51.206;6.888;2023-05-10T12:18:57;17.00;99.90
5246;DHT22;54412;51.206;6.888;2023-05-10T12:21:25;16.80;99.90
5246;DHT22;54412;51.206;6.888;2023-05-10T12:23:58;17.00;99.90
5246;DHT22;54412;51.206;6.888;2023-05-10T12:26:25;17.10;99.90
5246;DHT22;54412;51.206;6.888;2023-05-10T12:28:54;17.00;99.90
5246;DHT22;54412;51.206;6.888;2023-05-10T12:31:20;16.90;99.90
5246;DHT22;54412;51.206;6.888;2023-05-10T12:33:46;16.80;99.90
5246;DHT22;54412;51.206;6.888;2023-05-10T12:36:16;16.70;99.90
5246;DHT22;54412;51.206;6.888;2023-05-10T12:38:45;16.70;99.90
5246;DHT22;54412;51.206;6.888;2023-05-10T12:41:17;16.80;99.90
5246;DHT22;54412;51.206;6.888;2023-05-10T12:43:44;16.70;99.90
5246;DHT22;54412;51.206;6.888;2023-05-10T12:46:14;16.70;99.90
5246;DHT22;54412;51.206;6.888;2023-05-10T12:48:43;16.80;99.90
5246;DHT22;54412;51.206;6.888;2023-05-10T12:51:10;16.60;99.90
5246;DHT22;54412;51.206;6.888;2023-05-10T12:53:42;16.60;99.90
5246;DHT22;54412;51.206;6.888;2023-05-10T12:56:08;16.60;99.90
5246;DHT22;54412;51.206;6.888;2023-05-10T12:58:34;16.50;99.90
5246;DHT22;54412;51.206;6.888;2023-05-10T13:01:00;16.50;99.90
5246;DHT22;54412;51.206;6.888;2023-05-10T13:03:26;16.30;99.90
5246;DHT22;54412;51.206;6.888;2023-05-10T13:05:52;16.10;99.90
5246;DHT22;54412;51.206;6.888;2023-05-10T13:08:17;16.10;99.90
5246;DHT22;54412;51.206;6.888;2023-05-10T13:10:43;16.00;99.90
5246;DHT22;54412;51.206;6.888;2023-05-10T13:13:09;15.80;99.90
5246;DHT22;54412;51.206;6.888;2023-05-10T13:15:35;16.00;99.90
5246;DHT22;54412;51.206;6.888;2023-05-10T13:18:01;16.00;99.90
5246;DHT22;54412;51.206;6.888;2023-05-10T13:20:27;15.90;99.90
5246;DHT22;54412;51.206;6.888;2023-05-10T13:22:53;15.90;99.90
5246;DHT22;54412;51.206;6.888;2023-05-10T13:25:19;16.00;99.90
5246;DHT22;54412;51.206;6.888;2023-05-10T13:27:45;15.80;99.90
5246;DHT22;54412;51.206;6.888;2023-05-10T13:30:11;15.90;99.90
5246;DHT22;54412;51.206;6.888;2023-05-10T13:32:37;16.10;99.90
5246;DHT22;54412;51.206;6.888;2023-05-10T13:35:04;16.20;99.90
5246;DHT22;54412;51.206;6.888;2023-05-10T13:37:31;16.20;99.90
5246;DHT22;54412;51.206;6.888;2023-05-10T13:39:57;16.20;99.90
5246;DHT22;54412;51.206;6.888;2023-05-10T13:42:23;16.10;99.90
5246;DHT22;54412;51.206;6.888;2023-05-10T13:44:50;16.10;99.90
5246;DHT22;54412;51.206;6.888;2023-05-10T13:47:16;16.20;99.90
5246;DHT22;54412;51.206;6.888;2023-05-10T13:49:41;16.20;99.90
5246;DHT22;54412;51.206;6.888;2023-05-10T13:52:07;16.00;99.90
5246;DHT22;54412;51.206;6.888;2023-05-10T13:54:34;16.00;99.90
5246;DHT22;54412;51.206;6.888;2023-05-10T13:56:59;16.00;99.90
5246;DHT22;54412;51.206;6.888;2023-05-10T13:59:25;16.10;99.90
5246;DHT22;54412;51.206;6.888;2023-05-10T14:01:51;16.20;99.90
5246;DHT22;54412;51.206;6.888;2023-05-10T14:04:17;16.20;99.90
5246;DHT22;54412;51.206;6.888;2023-05-10T14:06:43;16.40;99.90
5246;DHT22;54412;51.206;6.888;2023-05-10T14:09:08;16.40;99.90
5246;DHT22;54412;51.206;6.888;2023-05-10T14:11:34;16.50;99.90
5246;DHT22;54412;51.206;6.888;2023-05-10T14:14:00;16.40;99.90
5246;DHT22;54412;51.206;6.888;2023-05-10T14:16:25;16.40;99.90
5246;DHT22;54412;51.206;6.888;2023-05-10T14:18:52;16.50;99.90
5246;DHT22;54412;51.206;6.888;2023-05-10T14:21:18;16.50;99.90
5246;DHT22;54412;51.206;6.888;2023-05-10T14:23:44;16.60;99.90
5246;DHT22;54412;51.206;6.888;2023-05-10T14:26:10;16.70;99.90
5246;DHT22;54412;51.206;6.888;2023-05-10T14:28:35;16.50;99.90
5246;DHT22;54412;51.206;6.888;2023-05-10T14:31:01;16.50;99.90
5246;DHT22;54412;51.206;6.888;2023-05-10T14:33:27;16.40;99.90
5246;DHT22;54412;51.206;6.888;2023-05-10T14:35:54;16.40;99.90
5246;DHT22;54412;51.206;6.888;2023-05-10T14:38:22;16.30;99.90
5246;DHT22;54412;51.206;6.888;2023-05-10T14:40:47;16.30;99.90
5246;DHT22;54412;51.206;6.888;2023-05-10T14:43:13;16.40;99.90
5246;DHT22;54412;51.206;6.888;2023-05-10T14:45:38;16.30;99.90
5246;DHT22;54412;51.206;6.888;2023-05-10T14:48:04;16.40;99.90
5246;DHT22;54412;51.206;6.888;2023-05-10T14:50:31;16.30;99.90
5246;DHT22;54412;51.206;6.888;2023-05-10T14:52:57;16.30;99.90
5246;DHT22;54412;51.206;6.888;2023-05-10T14:55:24;16.20;99.90
5246;DHT22;54412;51.206;6.888;2023-05-10T14:57:50;16.10;99.90
5246;DHT22;54412;51.206;6.888;2023-05-10T15:00:16;16.20;99.90
5246;DHT22;54412;51.206;6.888;2023-05-10T15:02:42;16.20;99.90
5246;DHT22;54412;51.206;6.888;2023-05-10T15:05:08;16.20;99.90
5246;DHT22;54412;51.206;6.888;2023-05-10T15:07:33;16.20;99.90
5246;DHT22;54412;51.206;6.888;2023-05-10T15:09:59;16.00;99.90
5246;DHT22;54412;51.206;6.888;2023-05-10T15:12:25;16.00;99.90
5246;DHT22;54412;51.206;6.888;2023-05-10T15:14:51;16.10;99.90
5246;DHT22;54412;51.206;6.888;2023-05-10T15:17:16;16.10;99.90
5246;DHT22;54412;51.206;6.888;2023-05-10T15:19:42;16.20;99.90
5246;DHT22;54412;51.206;6.888;2023-05-10T15:22:08;16.20;99.90
5246;DHT22;54412;51.206;6.888;2023-05-10T15:24:34;16.30;99.90
5246;DHT22;54412;51.206;6.888;2023-05-10T15:26:59;16.40;99.90
5246;DHT22;54412;51.206;6.888;2023-05-10T15:29:26;16.40;99.90
5246;DHT22;54412;51.206;6.888;2023-05-10T15:31:51;16.30;99.90
5246;DHT22;54412;51.206;6.888;2023-05-10T15:34:18;16.40;99.90
5246;DHT22;54412;51.206;6.888;2023-05-10T15:36:44;16.40;99.90
5246;DHT22;54412;51.206;6.888;2023-05-10T15:39:11;16.30;99.90
5246;DHT22;54412;51.206;6.888;2023-05-10T15:41:36;16.30;99.90
5246;DHT22;54412;51.206;6.888;2023-05-10T15:44:02;16.40;99.90
5246;DHT22;54412;51.206;6.888;2023-05-10T15:46:28;16.40;99.90
5246;DHT22;54412;51.206;6.888;2023-05-10T15:48:54;16.40;99.90
5246;DHT22;54412;51.206;6.888;2023-05-10T15:51:20;16.30;99.90
5246;DHT22;54412;51.206;6.888;2023-05-10T15:53:46;16.40;99.90
5246;DHT22;54412;51.206;6.888;2023-05-10T15:56:12;16.40;99.90
5246;DHT22;54412;51.206;6.888;2023-05-10T15:58:38;16.50;99.90
5246;DHT22;54412;51.206;6.888;2023-05-10T16:01:05;16.50;99.90
5246;DHT22;54412;51.206;6.888;2023-05-10T16:03:31;16.60;99.90
5246;DHT22;54412;51.206;6.888;2023-05-10T16:05:58;16.60;99.90
5246;DHT22;54412;51.206;6.888;2023-05-10T16:08:24;16.60;99.90
5246;DHT22;54412;51.206;6.888;2023-05-10T16:10:50;16.60;99.90
5246;DHT22;54412;51.206;6.888;2023-05-10T16:13:16;16.60;99.90
5246;DHT22;54412;51.206;6.888;2023-05-10T16:15:42;16.60;99.90
5246;DHT22;54412;51.206;6.888;2023-05-10T16:18:08;16.60;99.90
5246;DHT22;54412;51.206;6.888;2023-05-10T16:20:35;16.60;99.90